createdAt,value
2022-12-01T00:00:16.116Z,-1.54
2022-12-01T00:03:18.099Z,-1.56
2022-12-01T00:06:21.535Z,-1.55
2022-12-01T00:09:42.176Z,-1.57
2022-12-01T00:12:44.062Z,-1.69
2022-12-01T00:15:46.660Z,-1.67
2022-12-01T00:18:52.861Z,-1.66
2022-12-01T00:21:54.666Z,-1.70
2022-12-01T00:24:56.524Z,-1.67
2022-12-01T00:27:58.955Z,-1.72
2022-12-01T00:31:00.866Z,-1.69
2022-12-01T00:34:05.693Z,-1.72
2022-12-01T00:37:11.515Z,-1.73
2022-12-01T00:40:13.949Z,-1.80
2022-12-01T00:43:15.776Z,-1.80
2022-12-01T00:46:18.402Z,-1.77
2022-12-01T00:49:20.244Z,-1.78
2022-12-01T00:52:22.224Z,-1.82
2022-12-01T00:55:24.127Z,-1.84
2022-12-01T00:58:26.207Z,-1.89
2022-12-01T01:01:28.104Z,-1.85
2022-12-01T01:04:31.108Z,-1.85
2022-12-01T01:07:33.127Z,-1.88
2022-12-01T01:10:43.181Z,-1.94
2022-12-01T01:13:45.029Z,-2.00
2022-12-01T01:16:46.872Z,-1.99
2022-12-01T01:19:49.092Z,-2.03
2022-12-01T01:22:51.110Z,-2.01
2022-12-01T01:25:52.988Z,-2.06
2022-12-01T01:28:57.542Z,-2.08
2022-12-01T01:31:59.352Z,-2.06
2022-12-01T01:35:01.258Z,-2.10
2022-12-01T01:38:03.066Z,-2.12
2022-12-01T01:41:06.440Z,-2.12
2022-12-01T01:44:45.903Z,-2.16
2022-12-01T01:47:50.075Z,-2.24
2022-12-01T01:50:51.933Z,-2.23
2022-12-01T01:53:58.896Z,-2.22
2022-12-01T01:57:02.426Z,-2.30
2022-12-01T02:00:13.932Z,-2.32
2022-12-01T02:03:18.392Z,-2.33
2022-12-01T02:06:22.804Z,-2.32
2022-12-01T02:09:24.839Z,-2.33
2022-12-01T02:12:53.804Z,-2.41
2022-12-01T02:16:16.793Z,-2.45
2022-12-01T02:19:50.007Z,-2.41
2022-12-01T02:23:13.142Z,-2.40
2022-12-01T02:26:43.815Z,-2.40
2022-12-01T02:29:57.502Z,-2.41
2022-12-01T02:33:12.118Z,-2.43
2022-12-01T02:36:34.937Z,-2.46
2022-12-01T02:39:45.513Z,-2.40
2022-12-01T02:43:05.285Z,-2.44
2022-12-01T02:46:14.554Z,-2.45
2022-12-01T02:49:20.776Z,-2.48
2022-12-01T02:52:24.580Z,-2.46
2022-12-01T02:55:26.390Z,-2.46
2022-12-01T02:58:28.244Z,-2.47
2022-12-01T03:01:45.196Z,-2.45
2022-12-01T03:05:10.154Z,-2.46
2022-12-01T03:08:32.744Z,-2.44
2022-12-01T03:11:46.440Z,-2.44
2022-12-01T03:15:13.578Z,-2.47
2022-12-01T03:18:15.411Z,-2.47
2022-12-01T03:21:32.219Z,-2.43
2022-12-01T03:24:34.920Z,-2.46
2022-12-01T03:28:00.586Z,-2.38
2022-12-01T03:31:09.025Z,-2.42
2022-12-01T03:34:24.192Z,-2.38
2022-12-01T03:37:45.573Z,-2.39
2022-12-01T03:40:50.978Z,-2.38
2022-12-01T03:44:02.208Z,-2.34
2022-12-01T03:47:08.057Z,-2.38
2022-12-01T03:50:14.297Z,-2.30
2022-12-01T03:53:24.092Z,-2.34
2022-12-01T03:56:44.462Z,-2.29
2022-12-01T03:59:47.810Z,-2.39
2022-12-01T04:02:56.343Z,-2.38
2022-12-01T04:05:58.294Z,-2.36
2022-12-01T04:09:00.192Z,-2.29
2022-12-01T04:12:20.716Z,-2.34
2022-12-01T04:15:22.539Z,-2.30
2022-12-01T04:18:24.579Z,-2.33
2022-12-01T04:21:26.424Z,-2.35
2022-12-01T04:24:28.267Z,-2.33
2022-12-01T04:27:30.063Z,-2.32
2022-12-01T04:30:31.896Z,-2.35
2022-12-01T04:33:33.753Z,-2.34
2022-12-01T04:36:35.945Z,-2.35
2022-12-01T04:39:38.406Z,-2.33
2022-12-01T04:42:40.295Z,-2.36
2022-12-01T04:45:42.207Z,-2.37
2022-12-01T04:48:44.244Z,-2.39
2022-12-01T04:51:46.140Z,-2.43
2022-12-01T04:54:48.034Z,-2.46
2022-12-01T04:57:49.891Z,-2.40
2022-12-01T05:00:51.851Z,-2.46
2022-12-01T05:03:53.805Z,-2.45
2022-12-01T05:06:55.778Z,-2.45
2022-12-01T05:09:58.138Z,-2.47
2022-12-01T05:13:00.518Z,-2.46
2022-12-01T05:16:11.264Z,-2.52
2022-12-01T05:19:31.517Z,-2.49
2022-12-01T05:23:03.855Z,-2.45
2022-12-01T05:25:56.019Z,-2.47
2022-12-01T05:28:57.945Z,-2.46
2022-12-01T05:31:59.964Z,-2.45
2022-12-01T05:35:01.828Z,-2.44
2022-12-01T05:38:07.786Z,-2.48
2022-12-01T05:41:10.533Z,-2.56
2022-12-01T05:44:12.351Z,-2.44
2022-12-01T05:47:14.218Z,-2.40
2022-12-01T05:50:16.263Z,-2.46
2022-12-01T05:53:18.562Z,-2.44
2022-12-01T05:56:20.507Z,-2.43
2022-12-01T05:59:22.407Z,-2.41
2022-12-01T06:02:27.003Z,-2.39
2022-12-01T06:05:29.004Z,-2.33
2022-12-01T06:08:30.962Z,-2.37
2022-12-01T06:11:32.828Z,-2.40
2022-12-01T06:14:34.678Z,-2.39
2022-12-01T06:17:40.170Z,-2.40
2022-12-01T06:20:42.335Z,-2.33
2022-12-01T06:23:44.217Z,-2.33
2022-12-01T06:26:46.097Z,-2.29
2022-12-01T06:29:49.704Z,-2.24
2022-12-01T06:32:51.831Z,-2.26
2022-12-01T06:36:01.339Z,-2.20
2022-12-01T06:39:10.154Z,-2.18
2022-12-01T06:42:12.361Z,-2.18
2022-12-01T06:45:14.405Z,-2.15
2022-12-01T06:48:16.460Z,-2.09
2022-12-01T06:51:18.875Z,-2.13
2022-12-01T06:54:21.434Z,-2.07
2022-12-01T06:57:23.226Z,-1.99
2022-12-01T07:00:25.590Z,-1.93
2022-12-01T07:03:27.499Z,-1.87
2022-12-01T07:06:33.041Z,-1.84
2022-12-01T07:09:35.069Z,-1.83
2022-12-01T07:12:37.196Z,-1.82
2022-12-01T07:15:39.005Z,-1.81
2022-12-01T07:18:40.967Z,-1.79
2022-12-01T07:21:42.874Z,-1.70
2022-12-01T07:24:44.736Z,-1.68
2022-12-01T07:27:46.551Z,-1.55
2022-12-01T07:30:48.769Z,-1.50
2022-12-01T07:33:50.683Z,-1.46
2022-12-01T07:36:52.547Z,-1.39
2022-12-01T07:39:54.386Z,-1.34
2022-12-01T07:42:56.239Z,-1.25
2022-12-01T07:46:04.507Z,-1.25
2022-12-01T14:15:42.457Z,-0.12
2022-12-01T14:18:51.959Z,-0.13
2022-12-01T14:21:54.072Z,-0.11
2022-12-01T14:24:56.038Z,-0.12
2022-12-01T14:28:03.542Z,-0.20
2022-12-01T14:31:06.446Z,-0.16
2022-12-01T14:34:13.165Z,-0.17
2022-12-01T14:37:21.695Z,-0.14
2022-12-01T14:40:25.695Z,-0.20
2022-12-01T14:43:47.254Z,-0.16
2022-12-01T14:46:54.876Z,-0.18
2022-12-01T14:50:03.028Z,-0.18
2022-12-01T14:53:22.023Z,-0.17
2022-12-01T14:56:25.876Z,-0.26
2022-12-01T14:59:28.028Z,-0.18
2022-12-01T15:02:30.034Z,-0.26
2022-12-01T15:05:37.719Z,-0.20
2022-12-01T15:08:45.884Z,-0.19
2022-12-01T15:11:53.046Z,-0.18
2022-12-01T15:14:55.023Z,-0.20
2022-12-01T15:17:58.070Z,-0.22
2022-12-01T15:21:12.130Z,-0.20
2022-12-01T15:24:28.677Z,-0.21
2022-12-01T15:27:33.477Z,-0.27
2022-12-01T15:30:35.766Z,-0.27
2022-12-01T15:33:39.119Z,-0.30
2022-12-01T15:36:44.715Z,-0.30
2022-12-01T15:39:53.009Z,-0.35
2022-12-01T15:43:08.416Z,-0.39
2022-12-01T15:46:16.329Z,-0.41
2022-12-01T15:49:24.665Z,-0.40
2022-12-01T15:52:33.167Z,-0.38
2022-12-01T15:55:38.455Z,-0.43
2022-12-01T15:58:46.039Z,-0.51
2022-12-01T16:01:48.199Z,-0.49
2022-12-01T16:05:04.319Z,-0.51
2022-12-01T16:08:17.518Z,-0.56
2022-12-01T16:11:22.666Z,-0.60
2022-12-01T16:14:33.732Z,-0.62
2022-12-01T16:17:54.014Z,-0.60
2022-12-01T16:21:02.974Z,-0.54
2022-12-01T16:24:06.256Z,-0.58
2022-12-01T16:27:26.133Z,-0.62
2022-12-01T16:30:35.006Z,-0.58
2022-12-01T16:33:39.570Z,-0.62
2022-12-01T16:36:42.589Z,-0.58
2022-12-01T16:39:46.551Z,-0.62
2022-12-01T16:42:53.440Z,-0.53
2022-12-01T16:46:03.763Z,-0.60
2022-12-01T16:49:06.733Z,-0.52
2022-12-01T16:52:36.500Z,-0.51
2022-12-01T16:55:37.399Z,-0.53
2022-12-01T16:58:39.210Z,-0.56
2022-12-01T17:01:41.519Z,-0.47
2022-12-01T17:04:43.460Z,-0.54
2022-12-01T17:07:45.445Z,-0.56
2022-12-01T17:10:50.488Z,-0.51
2022-12-01T17:13:55.814Z,-0.51
2022-12-01T17:17:00.392Z,-0.48
2022-12-01T17:20:03.239Z,-0.53
2022-12-01T17:23:08.088Z,-0.56
2022-12-01T17:26:15.596Z,-0.56
2022-12-01T17:29:21.077Z,-0.54
2022-12-01T17:32:25.452Z,-0.58
2022-12-01T17:35:27.260Z,-0.53
2022-12-01T17:38:34.905Z,-0.63
2022-12-01T17:41:38.147Z,-0.69
2022-12-01T17:49:51.555Z,-0.73
2022-12-01T17:52:53.472Z,-0.75
2022-12-01T17:55:55.505Z,-0.77
2022-12-01T17:58:57.556Z,-0.78
2022-12-01T18:01:59.482Z,-0.86
2022-12-01T18:05:01.359Z,-0.87
2022-12-01T18:08:03.254Z,-0.89
2022-12-01T18:11:12.684Z,-0.90
2022-12-01T18:14:17.925Z,-1.00
2022-12-01T18:17:19.947Z,-0.95
2022-12-01T18:20:21.805Z,-0.98
2022-12-01T18:23:23.970Z,-1.11
2022-12-01T18:26:28.930Z,-1.16
2022-12-01T18:29:30.769Z,-1.13
2022-12-01T18:32:32.715Z,-1.18
2022-12-01T18:35:34.579Z,-1.17
2022-12-01T18:38:37.517Z,-1.25
2022-12-01T18:41:40.355Z,-1.27
2022-12-01T18:44:42.514Z,-1.29
2022-12-01T18:47:44.836Z,-1.26
2022-12-01T18:50:47.039Z,-1.29
2022-12-01T18:53:53.114Z,-1.35
2022-12-01T18:56:58.826Z,-1.41
2022-12-01T19:00:00.765Z,-1.43
2022-12-01T19:03:03.488Z,-1.44
2022-12-01T19:06:07.196Z,-1.51
2022-12-01T19:09:12.642Z,-1.52
2022-12-01T19:12:15.123Z,-1.61
2022-12-01T19:15:17.160Z,-1.66
2022-12-01T19:19:15.590Z,-1.71
2022-12-01T19:22:36.281Z,-1.76
2022-12-01T19:25:38.213Z,-1.81
2022-12-01T19:28:42.291Z,-1.80
2022-12-01T19:31:44.310Z,-1.84
2022-12-01T19:34:46.382Z,-1.84
2022-12-01T19:37:48.252Z,-1.89
2022-12-01T19:40:52.586Z,-1.98
2022-12-01T19:43:55.134Z,-2.01
2022-12-01T19:46:57.215Z,-2.04
2022-12-01T19:50:00.768Z,-2.03
2022-12-01T19:53:02.759Z,-2.13
2022-12-01T19:56:05.533Z,-2.15
2022-12-01T19:59:08.133Z,-2.19
2022-12-01T20:02:10.764Z,-2.28
2022-12-01T20:05:13.775Z,-2.33
2022-12-01T20:08:15.493Z,-2.37
2022-12-01T20:11:17.991Z,-2.36
2022-12-01T20:14:19.844Z,-2.40
2022-12-01T20:17:21.770Z,-2.55
2022-12-01T20:20:23.672Z,-2.55
2022-12-01T20:23:25.516Z,-2.50
2022-12-01T20:26:34.148Z,-2.52
2022-12-01T20:29:36.050Z,-2.58
2022-12-01T20:32:37.936Z,-2.68
2022-12-01T20:35:39.787Z,-2.73
2022-12-01T20:38:41.695Z,-2.68
2022-12-01T20:41:44.895Z,-2.71
2022-12-01T20:44:46.859Z,-2.71
2022-12-01T20:47:48.781Z,-2.75
2022-12-01T20:50:50.681Z,-2.74
2022-12-01T20:54:19.823Z,-2.72
2022-12-01T20:57:14.404Z,-2.69
2022-12-01T21:00:17.225Z,-2.77
2022-12-01T21:03:19.131Z,-2.79
2022-12-01T21:06:21.296Z,-2.80
2022-12-01T21:09:23.117Z,-2.81
2022-12-01T21:12:44.220Z,-2.79
2022-12-01T21:16:01.893Z,-2.80
2022-12-01T21:19:13.832Z,-2.87
2022-12-01T21:22:15.739Z,-2.91
2022-12-01T21:25:22.409Z,-2.90
2022-12-01T21:28:25.763Z,-2.88
2022-12-01T21:31:27.776Z,-2.88
2022-12-01T21:34:30.248Z,-2.92
2022-12-01T21:37:32.130Z,-2.91
2022-12-01T21:40:34.348Z,-2.90
2022-12-01T21:43:38.374Z,-2.91
2022-12-01T21:46:42.426Z,-2.96
2022-12-01T21:49:45.494Z,-2.93
2022-12-01T21:52:48.063Z,-2.97
2022-12-01T21:55:49.852Z,-2.99
2022-12-01T21:58:52.652Z,-2.97
2022-12-01T22:01:56.675Z,-3.00
2022-12-01T22:04:59.675Z,-3.02
2022-12-01T22:08:13.439Z,-3.06
2022-12-01T22:11:15.220Z,-3.07
2022-12-01T22:14:21.588Z,-3.01
2022-12-01T22:17:23.429Z,-3.06
2022-12-01T22:20:25.319Z,-3.06
2022-12-01T22:23:36.205Z,-3.07
2022-12-01T22:26:41.644Z,-3.04
2022-12-01T22:29:48.854Z,-3.00
2022-12-01T22:32:59.846Z,-2.99
2022-12-01T22:36:01.756Z,-3.07
2022-12-01T22:39:22.588Z,-3.06
2022-12-01T22:42:32.769Z,-3.11
2022-12-01T22:45:34.663Z,-3.12
2022-12-01T22:48:41.975Z,-3.04
2022-12-01T22:51:48.417Z,-3.09
2022-12-01T22:54:50.448Z,-3.09
2022-12-01T22:57:52.611Z,-3.11
2022-12-01T23:00:57.927Z,-3.04
2022-12-01T23:04:27.244Z,-3.07
2022-12-01T23:07:30.530Z,-3.11
2022-12-01T23:10:34.947Z,-3.17
2022-12-01T23:13:36.750Z,-3.16
2022-12-01T23:16:40.239Z,-3.26
2022-12-01T23:19:42.194Z,-3.24
2022-12-01T23:22:44.057Z,-3.32
2022-12-01T23:25:48.730Z,-3.29
2022-12-01T23:28:50.564Z,-3.28
2022-12-01T23:31:52.558Z,-3.25
2022-12-01T23:34:59.977Z,-3.26
2022-12-01T23:38:02.289Z,-3.28
2022-12-01T23:41:12.765Z,-3.22
2022-12-01T23:44:22.519Z,-3.22
2022-12-01T23:47:29.401Z,-3.28
2022-12-01T23:50:31.611Z,-3.27
2022-12-01T23:53:33.755Z,-3.21
2022-12-01T23:56:38.046Z,-3.24
2022-12-01T23:59:39.908Z,-3.28
